Time;durP1;ratioP1;P1;durP2;ratioP2;P2;SDS_P1;SDS_P2;PMS_P1;PMS_P2;Temp;Humidity;BMP_temperature;BMP_pressure;BME280_temperature;BME280_humidity;BME280_pressure;Samples;Min_cycle;Max_cycle;Signal;HPM_P1;HPM_P2
2023/11/17 00:02:42;;;;;;;;;;;7.60;99.90;;;;;;6730650;88;20044;-78
2023/11/17 00:12:42;;;;;;;;;;;7.60;99.90;;;;;;6732402;88;20133;-78
2023/11/17 00:22:43;;;;;;;;;;;7.40;99.90;;;;;;6727112;88;20501;-77
2023/11/17 00:32:43;;;;;;;;;;;7.40;99.90;;;;;;6735927;88;20131;-76
2023/11/17 00:42:43;;;;;;;;;;;7.40;99.90;;;;;;6733667;88;20166;-77
2023/11/17 00:52:44;;;;;;;;;;;7.30;99.90;;;;;;6735010;88;20066;-77
2023/11/17 01:02:44;;;;;;;;;;;7.10;99.90;;;;;;6731536;88;20076;-77
2023/11/17 01:12:45;;;;;;;;;;;7.00;99.90;;;;;;6736054;88;20079;-77
2023/11/17 01:22:45;;;;;;;;;;;6.90;99.90;;;;;;6734895;88;20057;-77
2023/11/17 01:32:46;;;;;;;;;;;6.80;99.90;;;;;;6733183;88;20059;-77
2023/11/17 01:42:46;;;;;;;;;;;6.70;99.90;;;;;;6733992;88;20493;-77
2023/11/17 01:52:47;;;;;;;;;;;6.60;99.90;;;;;;6742588;88;20077;-78
2023/11/17 02:02:48;;;;;;;;;;;6.60;99.90;;;;;;6727883;88;20047;-78
2023/11/17 02:12:54;;;;;;;;;;;6.50;99.90;;;;;;6735355;88;20146;-77
2023/11/17 02:23:00;;;;;;;;;;;6.40;99.90;;;;;;6734897;88;20917;-77
2023/11/17 02:33:00;;;;;;;;;;;6.40;99.90;;;;;;6731069;88;20172;-78
2023/11/17 02:43:07;;;;;;;;;;;6.30;99.90;;;;;;6734293;88;20513;-78
2023/11/17 02:53:18;;;;;;;;;;;6.20;99.90;;;;;;6729538;88;20062;-77
2023/11/17 03:03:22;;;;;;;;;;;6.20;99.90;;;;;;6732312;88;20090;-77
2023/11/17 03:13:23;;;;;;;;;;;6.00;99.90;;;;;;6732456;88;20063;-77
2023/11/17 03:23:24;;;;;;;;;;;5.90;99.90;;;;;;6732598;88;20069;-77
2023/11/17 03:33:29;;;;;;;;;;;5.80;99.90;;;;;;6734225;88;20565;-77
2023/11/17 03:43:29;;;;;;;;;;;5.80;99.90;;;;;;6733932;88;20054;-77
2023/11/17 03:53:30;;;;;;;;;;;5.70;99.90;;;;;;6733731;88;20058;-77
2023/11/17 04:03:31;;;;;;;;;;;5.70;99.90;;;;;;6732412;88;20066;-76
2023/11/17 04:13:35;;;;;;;;;;;5.60;99.90;;;;;;6731028;88;20107;-78
2023/11/17 04:23:36;;;;;;;;;;;5.60;99.90;;;;;;6731338;88;20082;-77
2023/11/17 04:33:37;;;;;;;;;;;5.60;99.90;;;;;;6728101;88;20612;-77
2023/11/17 04:43:37;;;;;;;;;;;5.50;99.90;;;;;;6729272;88;20147;-76
2023/11/17 04:53:38;;;;;;;;;;;5.40;99.90;;;;;;6736121;88;20168;-77
2023/11/17 05:03:40;;;;;;;;;;;5.40;99.90;;;;;;6738617;88;20576;-78
2023/11/17 05:13:41;;;;;;;;;;;5.60;99.90;;;;;;6729621;88;20501;-77
2023/11/17 05:23:41;;;;;;;;;;;5.60;99.90;;;;;;6730723;88;20066;-78
2023/11/17 05:33:42;;;;;;;;;;;5.50;99.90;;;;;;6729518;88;20052;-78
2023/11/17 05:43:45;;;;;;;;;;;5.50;99.90;;;;;;6733593;88;20497;-77
2023/11/17 05:53:46;;;;;;;;;;;5.40;99.90;;;;;;6731034;88;20055;-77
2023/11/17 06:03:46;;;;;;;;;;;5.30;99.90;;;;;;6695437;88;20101;-77
2023/11/17 06:13:47;;;;;;;;;;;5.30;99.90;;;;;;6728641;88;20586;-78
2023/11/17 06:23:48;;;;;;;;;;;5.30;99.90;;;;;;6734192;88;20092;-78
2023/11/17 06:33:49;;;;;;;;;;;5.30;99.90;;;;;;6730075;88;20204;-77
2023/11/17 06:43:51;;;;;;;;;;;5.20;99.90;;;;;;6735453;88;20101;-78
2023/11/17 06:53:52;;;;;;;;;;;5.10;99.90;;;;;;6721698;88;20507;-78
2023/11/17 07:03:52;;;;;;;;;;;5.10;99.90;;;;;;6720657;88;20069;-78
2023/11/17 07:13:54;;;;;;;;;;;5.30;99.90;;;;;;6719690;88;20062;-78
2023/11/17 07:23:55;;;;;;;;;;;5.20;99.90;;;;;;6740154;88;20436;-77
2023/11/17 07:33:56;;;;;;;;;;;5.20;99.90;;;;;;6724970;88;20444;-79
2023/11/17 07:43:56;;;;;;;;;;;5.30;99.90;;;;;;6726634;88;20489;-78
2023/11/17 07:53:57;;;;;;;;;;;5.30;99.90;;;;;;6736793;88;20066;-78
2023/11/17 08:03:57;;;;;;;;;;;5.40;99.90;;;;;;6730612;88;20058;-77
2023/11/17 08:13:58;;;;;;;;;;;5.60;99.90;;;;;;6737912;88;20076;-78
2023/11/17 08:23:58;;;;;;;;;;;5.90;99.90;;;;;;6726071;88;20503;-78
2023/11/17 08:34:00;;;;;;;;;;;6.10;99.90;;;;;;6734427;88;20117;-78
2023/11/17 08:44:00;;;;;;;;;;;6.30;99.90;;;;;;6730431;88;20042;-78
2023/11/17 09:47:21;;;;;;;;;;;6.80;99.90;;;;;;6724493;88;20489;-80
2023/11/17 09:57:22;;;;;;;;;;;6.80;99.90;;;;;;6742036;88;20080;-80
2023/11/17 10:07:24;;;;;;;;;;;6.80;99.90;;;;;;6739325;88;20672;-81
2023/11/17 10:17:25;;;;;;;;;;;6.90;99.90;;;;;;6721979;88;20082;-81
2023/11/17 10:27:27;;;;;;;;;;;6.90;99.90;;;;;;6725386;88;20050;-80
2023/11/17 10:37:34;;;;;;;;;;;6.90;99.90;;;;;;6719597;88;20076;-79
2023/11/17 10:47:35;;;;;;;;;;;7.10;99.90;;;;;;6720886;88;20052;-81
2023/11/17 10:57:36;;;;;;;;;;;7.30;99.90;;;;;;6720268;88;20124;-79
2023/11/17 11:07:45;;;;;;;;;;;7.30;99.90;;;;;;6720185;88;20132;-80
2023/11/17 11:17:52;;;;;;;;;;;7.40;99.90;;;;;;6716701;88;20578;-81
2023/11/17 11:27:54;;;;;;;;;;;7.40;99.90;;;;;;6716025;88;20068;-80
2023/11/17 11:37:55;;;;;;;;;;;7.40;99.90;;;;;;6719008;88;20111;-80
2023/11/17 11:48:00;;;;;;;;;;;7.40;99.90;;;;;;6719148;88;20297;-82
2023/11/17 11:58:01;;;;;;;;;;;7.30;99.90;;;;;;6728950;88;20059;-81
2023/11/17 12:08:02;;;;;;;;;;;7.30;99.90;;;;;;6723799;88;20147;-81
2023/11/17 12:18:05;;;;;;;;;;;7.30;99.90;;;;;;6721496;88;20043;-80
2023/11/17 12:28:08;;;;;;;;;;;7.30;99.90;;;;;;6716010;88;20066;-79
2023/11/17 12:38:14;;;;;;;;;;;7.40;99.90;;;;;;6716990;88;20055;-80
2023/11/17 12:48:17;;;;;;;;;;;7.50;99.90;;;;;;6675603;88;20662;-81
2023/11/17 12:58:19;;;;;;;;;;;7.60;99.90;;;;;;6727558;88;20070;-80
2023/11/17 13:08:20;;;;;;;;;;;7.70;99.90;;;;;;6730318;88;20054;-80
2023/11/17 13:18:22;;;;;;;;;;;7.60;99.90;;;;;;6731165;88;20072;-80
2023/11/17 13:28:23;;;;;;;;;;;7.50;99.90;;;;;;6729566;88;20050;-79
2023/11/17 13:38:23;;;;;;;;;;;7.60;99.90;;;;;;6729367;88;20566;-78
2023/11/17 13:48:25;;;;;;;;;;;7.60;99.90;;;;;;6733589;88;20059;-79
2023/11/17 13:58:26;;;;;;;;;;;7.60;99.90;;;;;;6738157;88;20103;-80
2023/11/17 14:08:26;;;;;;;;;;;7.60;99.90;;;;;;6737093;88;20076;-81
2023/11/17 14:18:27;;;;;;;;;;;7.70;99.90;;;;;;6734282;88;20708;-79
2023/11/17 14:28:27;;;;;;;;;;;7.60;99.90;;;;;;6730493;88;20067;-81
2023/11/17 14:38:28;;;;;;;;;;;7.50;99.90;;;;;;6728392;88;20568;-80
2023/11/17 14:48:30;;;;;;;;;;;7.50;99.90;;;;;;6732116;88;20094;-80
2023/11/17 14:58:52;;;;;;;;;;;7.50;99.90;;;;;;6722557;77;20728;-78
2023/11/17 15:08:56;;;;;;;;;;;7.40;99.90;;;;;;6711238;88;20557;-78
2023/11/17 15:18:58;;;;;;;;;;;7.50;99.90;;;;;;6718997;88;20046;-78
2023/11/17 15:28:59;;;;;;;;;;;7.30;99.90;;;;;;6716265;88;20540;-78
2023/11/17 15:39:00;;;;;;;;;;;7.20;99.90;;;;;;6721121;88;20146;-79
2023/11/17 15:49:03;;;;;;;;;;;7.20;99.90;;;;;;6722025;88;20076;-79
2023/11/17 15:59:04;;;;;;;;;;;7.00;99.90;;;;;;6709180;88;20063;-79
2023/11/17 16:09:13;;;;;;;;;;;7.10;99.90;;;;;;6720064;88;20069;-79
2023/11/17 16:19:16;;;;;;;;;;;7.00;99.90;;;;;;6709088;88;20059;-79
2023/11/17 16:29:19;;;;;;;;;;;7.00;99.90;;;;;;6711982;88;20081;-80
2023/11/17 16:39:21;;;;;;;;;;;7.00;99.90;;;;;;6701664;88;20522;-79
2023/11/17 16:49:22;;;;;;;;;;;6.90;99.90;;;;;;6711265;88;20050;-80
2023/11/17 16:59:23;;;;;;;;;;;6.80;99.90;;;;;;6709948;88;20556;-79
2023/11/17 17:09:25;;;;;;;;;;;6.50;99.90;;;;;;6705257;88;20191;-79
2023/11/17 17:19:29;;;;;;;;;;;6.30;99.90;;;;;;6719048;88;20066;-80
2023/11/17 17:29:29;;;;;;;;;;;6.10;99.90;;;;;;6704930;88;20194;-78
2023/11/17 17:39:31;;;;;;;;;;;5.90;99.90;;;;;;6713003;88;20486;-78
2023/11/17 17:49:31;;;;;;;;;;;5.60;99.90;;;;;;6722262;88;20090;-79
2023/11/17 17:59:32;;;;;;;;;;;5.50;99.90;;;;;;6689310;88;20101;-79
2023/11/17 18:09:33;;;;;;;;;;;5.30;99.90;;;;;;6645801;88;20066;-79
2023/11/17 18:19:34;;;;;;;;;;;5.20;99.90;;;;;;6648638;88;20169;-78
2023/11/17 18:29:34;;;;;;;;;;;5.10;99.90;;;;;;6650135;89;20719;-79
2023/11/17 18:39:36;;;;;;;;;;;4.90;99.90;;;;;;6637091;89;20569;-78
2023/11/17 18:49:38;;;;;;;;;;;4.70;99.90;;;;;;6648723;89;20065;-79
2023/11/17 18:59:39;;;;;;;;;;;4.70;99.90;;;;;;6658889;89;20065;-80
2023/11/17 19:09:40;;;;;;;;;;;4.60;99.90;;;;;;6658190;89;20105;-79
2023/11/17 19:19:41;;;;;;;;;;;4.50;99.90;;;;;;6650365;88;20132;-78
2023/11/17 19:29:41;;;;;;;;;;;4.50;99.90;;;;;;6641157;89;20118;-78
2023/11/17 19:39:42;;;;;;;;;;;4.30;99.90;;;;;;6641227;88;20135;-79
2023/11/17 19:49:44;;;;;;;;;;;4.20;99.90;;;;;;6644628;88;20512;-78
2023/11/17 19:59:45;;;;;;;;;;;4.00;99.90;;;;;;6643042;88;20179;-79
2023/11/17 20:09:45;;;;;;;;;;;3.90;99.90;;;;;;6646663;88;20053;-78
2023/11/17 20:19:45;;;;;;;;;;;4.10;99.90;;;;;;6649738;89;20085;-78
2023/11/17 20:29:48;;;;;;;;;;;4.10;99.90;;;;;;6646544;88;20080;-78
2023/11/17 20:39:48;;;;;;;;;;;3.80;99.90;;;;;;6644923;89;20607;-78
2023/11/17 20:49:49;;;;;;;;;;;3.70;99.90;;;;;;6648998;88;20163;-78
2023/11/17 21:10:31;;;;;;;;;;;3.60;99.90;;;;;;6649154;89;20217;-80
2023/11/17 21:20:32;;;;;;;;;;;3.80;99.90;;;;;;6646847;88;20097;-79
2023/11/17 21:30:33;;;;;;;;;;;3.90;99.90;;;;;;6646420;88;20675;-79
2023/11/17 21:40:34;;;;;;;;;;;3.80;99.90;;;;;;6642499;89;20083;-80
2023/11/17 21:50:35;;;;;;;;;;;3.60;99.90;;;;;;6649685;88;20137;-80
2023/11/17 22:00:35;;;;;;;;;;;3.30;99.90;;;;;;6632273;89;20047;-81
2023/11/17 22:10:36;;;;;;;;;;;3.20;99.90;;;;;;6650283;89;20086;-80
2023/11/17 22:20:36;;;;;;;;;;;3.20;99.90;;;;;;6646471;89;20130;-79
2023/11/17 22:30:37;;;;;;;;;;;3.10;99.90;;;;;;6637397;89;20063;-79
2023/11/17 22:40:37;;;;;;;;;;;3.20;99.90;;;;;;6634467;88;20154;-79
2023/11/17 22:50:38;;;;;;;;;;;3.20;99.90;;;;;;6631507;89;20064;-79
2023/11/17 23:10:39;;;;;;;;;;;3.20;99.90;;;;;;6626812;89;20138;-79
2023/11/17 23:20:39;;;;;;;;;;;3.40;99.90;;;;;;6642283;89;20141;-78
2023/11/17 23:30:40;;;;;;;;;;;3.50;99.90;;;;;;6636094;89;20101;-77
2023/11/17 23:40:40;;;;;;;;;;;3.50;99.90;;;;;;6635187;88;20075;-79
2023/11/17 23:50:41;;;;;;;;;;;3.50;99.90;;;;;;6662592;88;20507;-79
